首页
METAR-TAF:

METAR-TAF

机场 :

Decimomannu, 意大利

纬度: 39-21N, 经度: 008-58E, 海拔: 29米

当前天气观测

该预报发布于35分钟前的00:55 UTC
风速2节,风向北转西北
温度 12°C
湿度 82%
气压 1019 hPa
能见度10公里或以上
1500米以下无云,无积雨云

METAR: LIED 170055Z 34002KT CAVOK 12/09 Q1019 RMK SKC VIS MIN 9999 WIND THR35 34002KT WIND THR17 /////KT BLU

时间: 03:30 (01:30 UTC)

预报

该预报发布于2小时和30分钟前的23:00 UTC
预报有效从17日的 00点(UTC)到 17日的 09点(UTC)
风速2节,风向多变
能见度10公里或以上
1500米以下无云,无积雨云

TAF: LIED 162300Z 1700/1709 VRB02KT CAVOK

超过4000个机场的气象观测和天气预报(METAR&TAF报告)。

可查询的气象台以黄色和红色小点在地图上表示。

将鼠标移到小点上方,可查看气象台名称。

然后点击查看天气观测和预报。

如需切换地图:点击带黑十字的绿色按钮放大地图;点击带横线的绿色按钮缩小地图;或者点击绿色箭头查看邻近地区的地图。


METAR-TAF: